Terminal Aerodrome Forecast
Issued by NWS

Home | Current Version | Previous Version | Text Only | Print | Product List | Glossary On
Versions: 1 2 3 4 5 6 7 8 9 10 11 12 13
000
FTAK31 PAJN 041700
TAFAWG
TAF
PAWG 041720Z 0418/0518 11007KT P6SM VCSH BKN040 OVC060
     FM042100 12007KT 6SM -RA BR BKN030 OVC045
     FM050300 13006KT 4SM -RA BR OVC025
      AMD LTD TO CLD VIS AND WIND 0506/0515=

USA.gov is the U.S. government's official web portal to all federal, state and local government web resources and services.